SU1392 / RA-89061 7700 Squawk Report (1st of April, 2020)

Aircraft SU95 Reg No. RA-89061 Age 5 years old
Model SSJ-100 Jet engines 2 First flight 23-03-15
Registered 28-10-15 Rollout 02-15 Delivered 28-10-15
Construction No. 95090 Line No. 090 Series 95B
ADSHEX 155BE5 Airline name Aeroflot Russian Airlines Owner N/A
Airfield based Moscow-Sheremetyevo~Moscow~RA First tracked N/A

Flight history for RA-89061

Route Flight No Date Playback
Gumrak (VOG) - Sheremetyevo (SVO) SU1187 2020-05-28 19:09:00
Sheremetyevo (SVO) - Gumrak (VOG) SU1186 2020-05-28 17:37:00
Pashkovskiy (KRR) - Sheremetyevo (SVO) SU1101 2020-05-28 14:49:00
Sheremetyevo (SVO) - Pashkovskiy (KRR) SU1100 2020-05-28 08:24:00
Balandino (CEK) - Sheremetyevo (SVO) SU1533 2020-05-28 06:27:00
Sheremetyevo (SVO) - Balandino (CEK) SU1532 2020-05-27 21:30:00
Mineralnyye Vody (MRV) - Sheremetyevo (SVO) SU1311 2020-05-27 19:11:00
Sheremetyevo (SVO) - Mineralnyye Vody (MRV) SU1310 2020-05-27 13:58:00
GSV - Sheremetyevo (SVO) SU1357 2020-05-27 09:52:00
Sheremetyevo (SVO) - GSV SU1356 2020-05-27 06:35:00
Sochi (AER) - Sheremetyevo (SVO) SU1131 2020-05-27 03:33:00
Sheremetyevo (SVO) - Sochi (AER) SU1130 2020-05-26 14:06:00
Pashkovskiy (KRR) - Sheremetyevo (SVO) SU1285 2020-05-26 12:17:00
Sheremetyevo (SVO) - Pashkovskiy (KRR) SU1284 2020-05-26 07:44:00
Pashkovskiy (KRR) - Sheremetyevo (SVO) SU1107 2020-05-25 18:16:00
Sheremetyevo (SVO) - Pashkovskiy (KRR) SU1106 2020-05-25 16:31:00
Pashkovskiy (KRR) - Sheremetyevo (SVO) SU1285 2020-05-25 13:01:00
Sheremetyevo (SVO) - Pashkovskiy (KRR) SU1284 2020-05-25 05:03:00
Nizhny Novgorod (GOJ) - Sheremetyevo (SVO) SU1221 2020-05-24 09:51:00
???? N/A 2020-05-24 09:01:00
Time Lat Lon Altitude Heading Speed Vertical Rate
2020-04-01 11:43:55 GMT 57.488663 55.012798 16,475 51 397 -2816
2020-04-01 11:43:37 GMT 57.469482 54.967964 17,275 51 398 -2752
2020-04-01 11:43:33 GMT 57.464813 54.956963 17,450 51 400 -2688
2020-04-01 11:43:23 GMT 57.453514 54.930576 17,875 51 403 -2432
2020-04-01 11:43:15 GMT 57.443459 54.907101 18,225 51 406 -2432
2020-04-01 11:43:05 GMT 57.431870 54.880165 18,625 51 408 -2560
2020-04-01 11:42:54 GMT 57.419174 54.850788 19,100 51 410 -2432
2020-04-01 11:42:43 GMT 57.406677 54.821262 19,500 53 412 -1984
2020-04-01 11:42:33 GMT 57.396103 54.792336 19,825 58 415 -2048
2020-04-01 11:42:23 GMT 57.386341 54.760731 20,200 63 416 -2432
2020-04-01 11:42:13 GMT 57.377449 54.725117 20,650 67 415 -2560
2020-04-01 11:42:02 GMT 57.370926 54.692173 21,075 71 414 -2624
2020-04-01 11:41:52 GMT 57.364834 54.657955 21,500 71 416 -2496
2020-04-01 11:41:43 GMT 57.358597 54.622871 21,925 71 420 -2432
2020-04-01 11:41:31 GMT 57.352173 54.586990 22,350 71 422 -2304
2020-04-01 11:41:21 GMT 57.346027 54.552525 22,750 71 426 -2240
2020-04-01 11:41:11 GMT 57.339462 54.515842 23,100 71 431 -2304
2020-04-01 11:41:01 GMT 57.333252 54.481113 23,525 71 434 -2688
2020-04-01 11:40:50 GMT 57.326473 54.443192 24,000 71 436 -2944
2020-04-01 11:40:40 GMT 57.319427 54.403870 24,525 71 438 -2432
2020-04-01 11:40:29 GMT 57.313206 54.369301 24,900 71 442 -2304
2020-04-01 11:40:19 GMT 57.306519 54.332199 25,325 71 446 -2688
2020-04-01 11:40:10 GMT 57.300064 54.296234 25,800 71 448 -3008
2020-04-01 11:39:59 GMT 57.293564 54.259880 26,275 71 449 -2368
2020-04-01 11:39:49 GMT 57.286716 54.221783 26,675 71 451 -2304
2020-04-01 11:39:39 GMT 57.279781 54.183331 27,075 71 454 -2048
2020-04-01 11:39:28 GMT 57.273170 54.146385 27,400 71 458 -2048
2020-04-01 11:39:17 GMT 57.265915 54.106121 27,775 71 461 -2240
2020-04-01 11:39:08 GMT 57.259300 54.069214 28,125 71 464 -1920
2020-04-01 11:38:57 GMT 57.252182 54.029305 28,475 71 468 -2176
2020-04-01 11:38:46 GMT 57.244766 53.987846 28,950 71 468 -3456
2020-04-01 11:38:37 GMT 57.238312 53.951714 29,475 71 466 -2560
2020-04-01 11:38:26 GMT 57.231041 53.911331 29,925 71 468 -2688
2020-04-01 11:38:16 GMT 57.224197 53.873852 30,375 71 468 -2688
2020-04-01 11:38:06 GMT 57.216656 53.833538 30,875 70 468 -3008
2020-04-01 11:37:55 GMT 57.209301 53.795883 31,400 69 468 -2432
2020-04-01 11:37:44 GMT 57.201248 53.756901 31,750 68 474 -1600
2020-04-01 11:37:35 GMT 57.192310 53.718891 32,125 63 480 -3200
2020-04-01 11:37:24 GMT 57.180859 53.681679 32,650 57 485 -3264
2020-04-01 11:37:13 GMT 57.166286 53.644821 33,275 50 486 -3584
2020-04-01 11:37:04 GMT 57.152115 53.616371 33,800 44 485 -2304
2020-04-01 11:36:52 GMT 57.133610 53.585995 34,125 38 487 -1216
2020-04-01 11:36:42 GMT 57.115730 53.561981 34,300 35 486 -896
2020-04-01 11:36:33 GMT 57.097019 53.537617 34,475 35 484 -1024
2020-04-01 11:36:22 GMT 57.077839 53.512722 34,650 35 483 -960
2020-04-01 11:36:11 GMT 57.058868 53.488228 34,800 35 480 -832
2020-04-01 11:36:01 GMT 57.039478 53.463104 34,975 35 480 -448
2020-04-01 11:35:51 GMT 57.022488 53.441132 35,000 35 481 0
2020-04-01 11:35:41 GMT 57.003433 53.416557 35,000 35 481 0
2020-04-01 11:35:31 GMT 56.984455 53.392136 35,000 35 481 0
2020-04-01 11:35:20 GMT 56.965256 53.367374 35,000 35 481 -64
2020-04-01 11:35:09 GMT 56.946304 53.342999 35,000 35 482 -64
2020-04-01 11:35:00 GMT 56.928268 53.319912 35,000 35 482 0
2020-04-01 11:34:49 GMT 56.909412 53.295650 35,000 35 482 -64
2020-04-01 11:34:38 GMT 56.889999 53.270844 35,000 35 482 0
2020-04-01 11:34:29 GMT 56.871983 53.247810 35,000 34 481 64
2020-04-01 11:34:18 GMT 56.852509 53.222923 35,000 34 481 -128
2020-04-01 11:34:07 GMT 56.833466 53.198631 35,000 35 481 64
2020-04-01 11:33:58 GMT 56.815063 53.175201 35,000 34 480 0
2020-04-01 11:33:47 GMT 56.795929 53.150742 35,000 34 480 -128
2020-04-01 11:33:36 GMT 56.777573 53.127396 35,000 34 479 64
2020-04-01 11:33:27 GMT 56.757698 53.102150 35,000 34 480 0
2020-04-01 11:33:16 GMT 56.739964 53.079559 35,000 34 481 0
2020-04-01 11:33:05 GMT 56.720947 53.055382 35,000 34 481 0
2020-04-01 11:32:55 GMT 56.702812 53.032333 35,000 34 481 -64
2020-04-01 11:32:45 GMT 56.683731 53.008087 35,025 34 481 -64
2020-04-01 11:32:35 GMT 56.665512 52.984917 35,025 34 481 64
2020-04-01 11:32:24 GMT 56.645782 52.959850 35,000 34 481 64
2020-04-01 11:32:15 GMT 56.627426 52.936592 35,000 34 483 64
2020-04-01 11:32:03 GMT 56.607754 52.911663 34,975 34 484 -128
2020-04-01 11:31:53 GMT 56.589737 52.888783 35,000 34 483 -64
2020-04-01 11:31:44 GMT 56.570847 52.864880 35,000 34 481 64
2020-04-01 11:31:32 GMT 56.550865 52.839687 35,000 34 481 -64
2020-04-01 11:31:22 GMT 56.533085 52.817371 35,025 34 480 -128
2020-04-01 11:31:13 GMT 56.514038 52.793800 35,025 34 481 128
2020-04-01 11:31:02 GMT 56.495224 52.770664 35,025 36 482 0
2020-04-01 11:30:51 GMT 56.477188 52.744198 35,025 42 482 -64
2020-04-01 11:30:42 GMT 56.460709 52.713570 35,000 49 480 192
2020-04-01 11:30:31 GMT 56.447159 52.681858 34,975 55 480 128
2020-04-01 11:30:18 GMT 56.432671 52.637043 35,000 64 476 -128
2020-04-01 11:30:10 GMT 56.425503 52.607777 35,000 67 473 -64
2020-04-01 11:30:07 GMT 56.422989 52.596714 35,000 67 473 -64
2020-04-01 11:30:00 GMT 56.417587 52.573013 35,025 67 472 64
2020-04-01 11:29:57 GMT 56.414982 52.561512 35,025 67 472 0
2020-04-01 11:29:50 GMT 56.409256 52.536366 35,025 67 472 0
2020-04-01 11:29:45 GMT 56.405205 52.518597 35,000 67 472 -64
2020-04-01 11:29:40 GMT 56.400513 52.498085 35,025 67 472 0
2020-04-01 11:29:36 GMT 56.397476 52.484951 35,025 67 472 64
2020-04-01 11:29:29 GMT 56.391705 52.459633 35,000 67 473 0
2020-04-01 11:29:26 GMT 56.389709 52.450809 35,000 67 473 64
2020-04-01 11:29:19 GMT 56.383373 52.423241 35,000 67 475 0
2020-04-01 11:29:09 GMT 56.374557 52.384811 35,000 67 477 64
2020-04-01 11:28:58 GMT 56.365963 52.347363 35,000 67 478 -128
2020-04-01 11:28:47 GMT 56.356976 52.308395 35,000 67 478 -192
2020-04-01 11:28:38 GMT 56.348225 52.270287 35,000 67 477 0
2020-04-01 11:28:31 GMT 56.342873 52.247028 35,000 67 476 0
2020-04-01 11:28:25 GMT 56.337799 52.225094 35,000 67 475 0
2020-04-01 11:28:15 GMT 56.328812 52.186344 35,000 67 474 -64
2020-04-01 11:28:07 GMT 56.322327 52.158340 35,000 67 473 0
2020-04-01 11:28:03 GMT 56.319221 52.144802 35,025 67 473 64
2020-04-01 11:27:54 GMT 56.311634 52.112186 35,000 67 473 64
2020-04-01 11:27:43 GMT 56.303024 52.075195 35,000 67 472 64
2020-04-01 11:27:34 GMT 56.294689 52.039318 35,000 67 471 0
2020-04-01 11:27:23 GMT 56.285660 52.000694 35,000 67 471 0
2020-04-01 11:27:13 GMT 56.277191 51.964500 35,000 67 471 0
2020-04-01 11:27:02 GMT 56.268402 51.926880 35,000 67 472 -192
2020-04-01 11:26:53 GMT 56.259750 51.890011 35,025 67 471 0
2020-04-01 11:26:42 GMT 56.250961 51.852390 35,000 67 471 -64
2020-04-01 11:26:31 GMT 56.242085 51.814697 35,025 67 471 0
2020-04-01 11:26:21 GMT 56.233662 51.778908 35,000 67 472 192
2020-04-01 11:26:12 GMT 56.225140 51.742771 34,975 67 473 -128
2020-04-01 11:26:01 GMT 56.216202 51.705009 35,000 67 475 -64
2020-04-01 11:25:50 GMT 56.207451 51.667755 35,000 67 472 0
2020-04-01 11:25:40 GMT 56.198978 51.632050 35,000 67 471 -128
2020-04-01 11:25:31 GMT 56.190216 51.595207 35,000 66 470 -128
2020-04-01 11:25:20 GMT 56.181477 51.558323 35,025 66 469 -256
2020-04-01 11:25:09 GMT 56.172585 51.521156 35,050 66 468 64
2020-04-01 11:25:00 GMT 56.163940 51.485428 35,025 68 468 128
2020-04-01 11:24:49 GMT 56.156384 51.447773 35,000 73 468 0
2020-04-01 11:24:38 GMT 56.150562 51.408203 35,000 77 464 384
2020-04-01 11:24:29 GMT 56.146702 51.367180 34,975 83 463 -64
2020-04-01 11:24:18 GMT 56.145023 51.329758 35,000 88 458 -320
2020-04-01 11:24:06 GMT 56.144932 51.286671 35,025 90 452 0
2020-04-01 11:23:58 GMT 56.145023 51.252682 35,025 90 452 64
2020-04-01 11:23:47 GMT 56.145069 51.213882 35,000 90 453 128
2020-04-01 11:23:36 GMT 56.145126 51.174149 35,025 90 455 -64
2020-04-01 11:23:26 GMT 56.145126 51.136032 35,000 90 457 -64
2020-04-01 11:23:16 GMT 56.145164 51.096554 35,000 90 459 128
2020-04-01 11:23:06 GMT 56.145126 51.056461 35,000 90 459 0
2020-04-01 11:22:54 GMT 56.145164 51.015961 35,000 90 459 0
2020-04-01 11:22:44 GMT 56.145126 50.978477 35,000 90 459 -64
2020-04-01 11:22:35 GMT 56.145126 50.937527 35,000 89 458 0
2020-04-01 11:22:23 GMT 56.145069 50.898113 35,000 89 457 64
2020-04-01 11:22:13 GMT 56.145035 50.860538 35,000 89 457 64
2020-04-01 11:22:04 GMT 56.144978 50.822666 35,000 89 456 0
2020-04-01 11:21:53 GMT 56.144897 50.783386 35,000 89 455 -64
2020-04-01 11:21:43 GMT 56.144806 50.742603 35,000 89 455 0
2020-04-01 11:21:32 GMT 56.144714 50.704735 35,000 89 455 0
2020-04-01 11:21:22 GMT 56.144623 50.666115 35,000 89 456 -64
2020-04-01 11:21:12 GMT 56.144466 50.627148 35,000 89 456 64
2020-04-01 11:21:04 GMT 56.144348 50.596203 35,000 89 456 0
2020-04-01 11:21:01 GMT 56.144325 50.588093 35,000 89 456 64
2020-04-01 11:20:53 GMT 56.144211 50.556835 35,000 89 456 0
2020-04-01 11:20:50 GMT 56.144211 50.548927 35,000 89 456 0
2020-04-01 11:20:41 GMT 56.144028 50.509975 35,000 89 457 64
2020-04-01 11:20:32 GMT 56.143890 50.479931 35,000 89 458 64
2020-04-01 11:20:29 GMT 56.143845 50.469028 35,000 89 459 0
2020-04-01 11:20:23 GMT 56.143707 50.441811 35,000 89 460 -64
2020-04-01 11:20:19 GMT 56.143627 50.430080 35,000 89 460 0
2020-04-01 11:20:12 GMT 56.143490 50.401840 35,000 89 460 0
2020-04-01 11:20:09 GMT 56.143440 50.390079 35,000 89 460 0
2020-04-01 11:20:01 GMT 56.143303 50.362530 35,000 89 460 -128
2020-04-01 11:19:58 GMT 56.143257 50.351715 35,000 89 459 -64
2020-04-01 11:19:52 GMT 56.143066 50.325123 35,025 89 458 -64
2020-04-01 11:19:49 GMT 56.143024 50.313690 35,025 89 458 64
2020-04-01 11:19:41 GMT 56.142838 50.285027 35,000 89 458 128
2020-04-01 11:19:37 GMT 56.142792 50.271893 35,000 89 458 -64
2020-04-01 11:19:31 GMT 56.142609 50.247635 35,000 89 459 64
2020-04-01 11:19:27 GMT 56.142517 50.233822 35,000 89 459 0
2020-04-01 11:19:18 GMT 56.142242 50.193619 35,025 89 460 -64
2020-04-01 11:19:11 GMT 56.142059 50.168484 35,025 89 461 128
2020-04-01 11:19:07 GMT 56.141998 50.155766 35,025 89 461 0
2020-04-01 11:19:00 GMT 56.141785 50.130447 35,025 89 463 64
2020-04-01 11:18:56 GMT 56.141674 50.115509 35,025 89 463 0
2020-04-01 11:18:50 GMT 56.141464 50.091331 35,000 89 465 128
2020-04-01 11:18:47 GMT 56.141373 50.074852 35,000 89 465 -64
2020-04-01 11:18:39 GMT 56.141163 50.050880 35,000 89 466 192
2020-04-01 11:18:36 GMT 56.141052 50.036232 35,000 89 467 0
2020-04-01 11:18:30 GMT 56.140835 50.010712 35,000 89 468 64
2020-04-01 11:18:24 GMT 56.140640 49.990540 35,000 89 469 -64
2020-04-01 11:18:19 GMT 56.140457 49.971313 35,000 89 469 0
2020-04-01 11:18:16 GMT 56.140320 49.955750 35,000 89 469 -64
2020-04-01 11:18:08 GMT 56.140137 49.931145 35,000 89 469 -64
2020-04-01 11:18:04 GMT 56.139954 49.915051 35,000 89 469 0
2020-04-01 11:17:58 GMT 56.139771 49.892662 35,000 89 468 64
2020-04-01 11:17:55 GMT 56.139626 49.875011 35,000 89 468 0
2020-04-01 11:17:49 GMT 56.139393 49.851665 35,000 89 468 0
2020-04-01 11:17:44 GMT 56.139221 49.836063 35,000 89 467 0
2020-04-01 11:17:38 GMT 56.138992 49.813175 35,025 89 467 -64
2020-04-01 11:17:33 GMT 56.138809 49.794033 35,025 88 467 0
2020-04-01 11:17:27 GMT 56.138599 49.772785 35,000 88 467 0
2020-04-01 11:17:24 GMT 56.138397 49.755917 35,000 88 467 0
2020-04-01 11:17:17 GMT 56.138184 49.733391 35,000 88 467 -64
2020-04-01 11:17:11 GMT 56.137894 49.710888 35,000 88 468 192
2020-04-01 11:17:08 GMT 56.137714 49.694767 35,000 88 469 -128
2020-04-01 11:17:02 GMT 56.137482 49.674854 35,000 88 469 0
2020-04-01 11:16:57 GMT 56.137299 49.655025 35,000 88 469 -64
2020-04-01 11:16:52 GMT 56.137016 49.632969 35,000 88 469 0
2020-04-01 11:16:47 GMT 56.136841 49.615341 35,000 88 469 0
2020-04-01 11:16:41 GMT 56.136566 49.593201 35,000 88 469 0
2020-04-01 11:16:36 GMT 56.136337 49.574638 35,000 88 469 0
2020-04-01 11:16:31 GMT 56.136086 49.554260 35,000 88 469 -64
2020-04-01 11:16:27 GMT 56.135880 49.535938 35,000 88 469 -64
2020-04-01 11:16:21 GMT 56.135605 49.515965 35,025 88 469 64
2020-04-01 11:16:16 GMT 56.135342 49.495556 35,000 88 469 64
2020-04-01 11:16:10 GMT 56.135101 49.474514 35,000 88 469 0
2020-04-01 11:16:05 GMT 56.134827 49.454872 35,000 88 469 0
2020-04-01 11:16:00 GMT 56.134598 49.434444 35,000 88 469 64
2020-04-01 11:15:55 GMT 56.134323 49.416088 35,000 88 470 -64
2020-04-01 11:15:50 GMT 56.134048 49.393864 35,000 88 470 -128
2020-04-01 11:15:46 GMT 56.133804 49.375992 35,000 88 469 128
2020-04-01 11:15:40 GMT 56.133480 49.354794 35,000 88 469 256
2020-04-01 11:15:35 GMT 56.133247 49.335823 35,000 88 469 0
2020-04-01 11:15:30 GMT 56.132950 49.316212 35,000 88 468 0
2020-04-01 11:15:25 GMT 56.132675 49.296986 35,000 88 468 -64
2020-04-01 11:15:20 GMT 56.132362 49.273853 35,000 88 468 -192
2020-04-01 11:15:14 GMT 56.132130 49.256599 35,025 88 467 0
2020-04-01 11:15:08 GMT 56.131805 49.234116 35,025 88 466 -64
2020-04-01 11:15:04 GMT 56.131573 49.217632 35,025 88 466 0
2020-04-01 11:14:58 GMT 56.131199 49.193687 35,025 88 465 128
2020-04-01 11:14:54 GMT 56.130981 49.178135 35,025 88 465 0
2020-04-01 11:14:49 GMT 56.130661 49.156410 35,025 88 465 0
2020-04-01 11:14:43 GMT 56.130360 49.138241 35,025 88 465 64
2020-04-01 11:14:38 GMT 56.130035 49.116871 35,000 88 465 0
2020-04-01 11:14:34 GMT 56.129757 49.099014 35,000 88 465 0
2020-04-01 11:14:27 GMT 56.129337 49.074986 35,000 88 465 64
2020-04-01 11:14:23 GMT 56.129150 49.060738 35,000 88 465 0
2020-04-01 11:14:18 GMT 56.128731 49.036701 35,000 88 465 0
2020-04-01 11:14:13 GMT 56.128498 49.020569 35,000 88 465 0
2020-04-01 11:14:07 GMT 56.128124 48.998680 35,000 88 464 -64
2020-04-01 11:14:03 GMT 56.127846 48.981770 35,000 88 464 0
2020-04-01 11:13:56 GMT 56.127411 48.956326 35,000 88 463 64
2020-04-01 11:13:53 GMT 56.127193 48.942204 35,000 88 463 0
2020-04-01 11:13:47 GMT 56.126778 48.916538 35,000 88 462 0
2020-04-01 11:13:42 GMT 56.126495 48.902122 35,000 88 461 64
2020-04-01 11:13:35 GMT 56.126080 48.876801 35,000 88 461 64
2020-04-01 11:13:32 GMT 56.125854 48.864025 35,000 88 461 0
2020-04-01 11:13:22 GMT 56.125168 48.825657 35,000 88 460 -128
2020-04-01 11:13:16 GMT 56.124710 48.800686 35,025 88 460 0
2020-04-01 11:13:12 GMT 56.124451 48.786247 35,025 88 460 0
2020-04-01 11:13:04 GMT 56.123981 48.759384 35,000 88 459 -64
2020-04-01 11:13:01 GMT 56.123749 48.747585 35,025 88 459 0
2020-04-01 11:12:55 GMT 56.123329 48.723248 35,025 87 458 0
2020-04-01 11:12:50 GMT 56.123016 48.707470 35,025 87 458 0
2020-04-01 11:12:45 GMT 56.122494 48.681278 35,025 87 458 128
2020-04-01 11:12:40 GMT 56.122284 48.668686 35,000 88 459 64
2020-04-01 11:12:34 GMT 56.121780 48.643299 35,000 88 459 0
2020-04-01 11:12:31 GMT 56.121517 48.629780 35,025 87 460 192
2020-04-01 11:12:23 GMT 56.121002 48.604679 35,000 87 461 0
2020-04-01 11:12:20 GMT 56.120728 48.591862 35,000 87 462 -64
2020-04-01 11:12:14 GMT 56.120224 48.566063 35,000 87 463 -64
2020-04-01 11:12:09 GMT 56.119934 48.551586 35,000 87 464 -64
2020-04-01 11:12:02 GMT 56.119373 48.524551 35,000 87 464 64
2020-04-01 11:11:59 GMT 56.119141 48.513138 35,000 87 464 0
2020-04-01 11:11:53 GMT 56.118576 48.486912 35,000 87 464 64
2020-04-01 11:11:49 GMT 56.118256 48.471420 35,000 87 464 64
2020-04-01 11:11:42 GMT 56.117653 48.443184 35,000 87 464 64
2020-04-01 11:11:39 GMT 56.117512 48.435371 35,000 87 464 64
2020-04-01 11:11:32 GMT 56.116905 48.406708 35,000 87 464 -64
2020-04-01 11:11:29 GMT 56.116653 48.395775 35,000 87 464 -64
2020-04-01 11:11:22 GMT 56.116058 48.368641 35,000 87 464 64
2020-04-01 11:11:18 GMT 56.115784 48.355408 35,000 87 464 64
2020-04-01 11:11:09 GMT 56.114960 48.317204 35,000 87 463 0
2020-04-01 11:11:01 GMT 56.114300 48.288944 35,000 87 462 -64
2020-04-01 11:10:58 GMT 56.114090 48.277672 35,000 87 462 -64
2020-04-01 11:10:51 GMT 56.113461 48.250065 35,025 87 461 0
2020-04-01 11:10:48 GMT 56.113182 48.238480 35,025 87 461 -64
2020-04-01 11:10:40 GMT 56.112530 48.209984 35,025 87 460 64
2020-04-01 11:10:37 GMT 56.112305 48.199768 35,000 87 460 0
2020-04-01 11:10:28 GMT 56.111389 48.160400 35,025 87 460 128
2020-04-01 11:10:17 GMT 56.110435 48.121407 35,000 87 461 -64
2020-04-01 11:10:10 GMT 56.109741 48.091820 35,000 87 461 0
2020-04-01 11:10:06 GMT 56.109512 48.081581 35,025 87 461 -64
2020-04-01 11:09:57 GMT 56.108574 48.043900 35,000 87 461 64
2020-04-01 11:09:46 GMT 56.107635 48.005093 35,000 87 461 -64
2020-04-01 11:09:38 GMT 56.106758 47.969997 35,000 87 460 64
2020-04-01 11:09:35 GMT 56.106628 47.963894 35,000 87 460 64
2020-04-01 11:09:28 GMT 56.105686 47.926140 35,000 87 460 64
2020-04-01 11:09:15 GMT 56.104752 47.888157 35,000 87 460 0
2020-04-01 11:09:05 GMT 56.103687 47.847691 35,025 87 461 0
2020-04-01 11:08:55 GMT 56.102692 47.809837 35,000 87 461 0
2020-04-01 11:08:44 GMT 56.101593 47.769386 35,000 87 463 -64
2020-04-01 11:08:35 GMT 56.100494 47.728855 35,000 87 465 64
2020-04-01 11:08:24 GMT 56.099442 47.691319 35,000 87 466 -64
2020-04-01 11:08:14 GMT 56.098377 47.652081 35,000 87 467 0
2020-04-01 11:08:04 GMT 56.097309 47.613201 35,000 87 467 128
2020-04-01 11:07:54 GMT 56.096191 47.573032 35,000 87 466 -128
2020-04-01 11:07:43 GMT 56.095074 47.534409 35,025 87 466 64
2020-04-01 11:07:33 GMT 56.093956 47.494671 35,000 87 465 0
2020-04-01 11:07:22 GMT 56.092747 47.454414 35,000 87 464 -64
2020-04-01 11:07:13 GMT 56.091660 47.416492 35,000 87 464 64
2020-04-01 11:07:02 GMT 56.090466 47.376225 35,000 87 464 -64
2020-04-01 11:06:51 GMT 56.089325 47.336342 35,000 87 464 0
2020-04-01 11:06:42 GMT 56.088226 47.298389 35,000 86 465 -64
2020-04-01 11:06:32 GMT 56.087067 47.258720 35,000 86 466 -64
2020-04-01 11:06:21 GMT 56.085846 47.217907 35,000 86 467 0
2020-04-01 11:06:11 GMT 56.084702 47.179787 35,000 86 468 64
2020-04-01 11:06:01 GMT 56.083530 47.140446 35,000 86 468 0
2020-04-01 11:05:51 GMT 56.082272 47.100018 35,000 86 468 0
2020-04-01 11:05:40 GMT 56.081062 47.059765 35,000 86 468 -64
2020-04-01 11:05:29 GMT 56.079853 47.020454 35,000 86 467 64
2020-04-01 11:05:19 GMT 56.078613 46.980949 35,025 86 466 64
2020-04-01 11:05:10 GMT 56.077377 46.942417 35,000 86 467 64
2020-04-01 11:04:59 GMT 56.076080 46.901920 35,000 86 467 64
2020-04-01 11:04:49 GMT 56.074814 46.862766 35,000 86 468 -64
2020-04-01 11:04:45 GMT 56.074173 46.843472 35,000 86 468 0
2020-04-01 11:04:38 GMT 56.073566 46.824162 35,000 86 468 0
2020-04-01 11:04:28 GMT 56.072216 46.783733 35,025 86 467 0
2020-04-01 11:04:18 GMT 56.070923 46.744743 35,000 86 467 128
2020-04-01 11:04:08 GMT 56.069565 46.704857 35,000 86 468 -64
2020-04-01 11:03:58 GMT 56.068169 46.665802 35,000 86 468 0
2020-04-01 11:03:47 GMT 56.066666 46.624893 35,000 86 468 64
2020-04-01 11:03:37 GMT 56.065384 46.586277 35,000 87 466 -64
2020-04-01 11:03:26 GMT 56.064560 46.546158 35,000 88 466 -64
2020-04-01 11:03:17 GMT 56.064240 46.506458 35,000 89 465 64
2020-04-01 11:03:06 GMT 56.064442 46.468048 35,000 91 464 0
2020-04-01 11:02:56 GMT 56.065140 46.428394 35,000 92 463 64
2020-04-01 11:02:46 GMT 56.066025 46.390354 35,000 92 464 -64
2020-04-01 11:02:36 GMT 56.067051 46.348400 35,000 92 464 64
2020-04-01 11:02:25 GMT 56.067886 46.310551 35,025 92 464 128
2020-04-01 11:02:15 GMT 56.068771 46.272697 35,000 92 464 0
2020-04-01 11:02:04 GMT 56.069702 46.232616 35,000 92 464 0
2020-04-01 11:01:55 GMT 56.070587 46.192703 35,000 92 463 -64
2020-04-01 11:01:43 GMT 56.071518 46.151817 35,025 92 462 64
2020-04-01 11:01:33 GMT 56.072296 46.113865 35,000 92 462 64
2020-04-01 11:01:23 GMT 56.073166 46.074162 35,000 92 461 0
2020-04-01 11:01:14 GMT 56.073944 46.037460 35,000 92 461 -64
2020-04-01 11:00:53 GMT 56.075500 45.962551 35,000 92 460 64
2020-04-01 11:00:48 GMT 56.075958 45.940495 35,000 92 460 -128
2020-04-01 11:00:42 GMT 56.076359 45.918560 35,025 91 460 -64
2020-04-01 11:00:32 GMT 56.077244 45.876415 35,025 91 459 64
2020-04-01 11:00:20 GMT 56.078018 45.834877 35,000 91 459 128
2020-04-01 11:00:12 GMT 56.078594 45.804234 35,000 91 459 128
2020-04-01 11:00:02 GMT 56.079388 45.764153 35,000 91 459 -128
2020-04-01 10:59:51 GMT 56.080078 45.726513 35,000 91 458 -64
2020-04-01 10:59:37 GMT 56.081085 45.672413 35,000 91 458 -64
2020-04-01 10:59:30 GMT 56.081528 45.648277 35,025 91 458 0
2020-04-01 10:58:57 GMT 56.083694 45.521851 35,000 91 461 64
2020-04-01 10:58:53 GMT 56.083969 45.505703 35,000 91 461 -64
2020-04-01 10:58:41 GMT 56.084702 45.461342 35,000 91 461 0
2020-04-01 10:58:32 GMT 56.085297 45.423744 35,000 91 460 -64
2020-04-01 10:58:09 GMT 56.086647 45.341179 35,000 91 456 0
2020-04-01 10:58:02 GMT 56.087036 45.314026 35,000 91 456 0
2020-04-01 10:57:54 GMT 56.087540 45.280151 35,025 91 456 -128
2020-04-01 10:57:36 GMT 56.088501 45.214233 35,000 91 457 256
2020-04-01 10:57:33 GMT 56.088684 45.202579 35,000 91 457 -64
2020-04-01 10:57:22 GMT 56.089302 45.157330 35,000 91 459 0
2020-04-01 10:57:12 GMT 56.089767 45.122993 35,000 91 460 0
2020-04-01 10:57:02 GMT 56.090233 45.084972 35,000 91 461 -128
2020-04-01 10:56:50 GMT 56.090839 45.039909 35,025 91 460 64
2020-04-01 10:56:42 GMT 56.091248 45.007740 35,000 91 460 0
2020-04-01 10:56:31 GMT 56.091751 44.968204 35,000 91 461 64
2020-04-01 10:56:20 GMT 56.092236 44.928589 35,000 91 461 0
2020-04-01 10:56:10 GMT 56.092667 44.890305 35,000 91 461 0
2020-04-01 10:56:01 GMT 56.093124 44.851517 35,000 91 460 64
2020-04-01 10:55:50 GMT 56.093536 44.813232 35,000 91 460 -64
2020-04-01 10:55:47 GMT 56.093678 44.798813 35,000 91 460 -64
2020-04-01 10:55:39 GMT 56.093948 44.771950 35,025 91 460 128
2020-04-01 10:55:29 GMT 56.094406 44.730419 35,000 91 460 0
2020-04-01 10:55:25 GMT 56.094589 44.711525 35,000 91 459 0
2020-04-01 10:55:18 GMT 56.094795 44.693584 35,000 90 459 0
2020-04-01 10:55:14 GMT 56.094955 44.673405 35,000 90 459 -64
2020-04-01 10:55:08 GMT 56.095139 44.655514 35,000 90 459 64
2020-04-01 10:54:59 GMT 56.095539 44.616680 35,000 91 458 0
2020-04-01 10:54:48 GMT 56.095913 44.577972 35,025 91 457 128
2020-04-01 10:54:38 GMT 56.096287 44.539173 35,000 90 456 0
2020-04-01 10:54:24 GMT 56.096798 44.478493 35,000 90 456 0
2020-04-01 10:54:17 GMT 56.096924 44.461838 35,000 90 456 0
2020-04-01 10:54:07 GMT 56.097263 44.423820 35,000 90 456 -64
2020-04-01 10:53:56 GMT 56.097565 44.384266 35,025 90 456 64
2020-04-01 10:53:50 GMT 56.097775 44.354210 35,025 90 456 128
2020-04-01 10:53:47 GMT 56.097820 44.346397 35,000 90 455 -64
2020-04-01 10:53:36 GMT 56.098099 44.306660 35,000 90 455 0
2020-04-01 10:53:26 GMT 56.098343 44.269409 35,000 90 456 128
2020-04-01 10:53:15 GMT 56.098572 44.229710 35,000 90 456 -64
2020-04-01 10:53:06 GMT 56.098797 44.191475 35,000 90 457 64
2020-04-01 10:52:55 GMT 56.099079 44.148388 35,000 90 457 0
2020-04-01 10:52:45 GMT 56.099262 44.114227 35,000 90 458 -64
2020-04-01 10:52:33 GMT 56.099487 44.065578 35,000 90 458 -192
2020-04-01 10:52:25 GMT 56.099625 44.035450 35,025 90 458 0
2020-04-01 10:52:17 GMT 56.099777 44.005482 35,000 90 458 192
2020-04-01 10:52:14 GMT 56.099808 43.997997 35,000 90 458 -128
2020-04-01 10:52:11 GMT 56.099869 43.986771 35,025 90 458 -64
2020-04-01 10:52:05 GMT 56.099960 43.962307 35,025 90 458 64
2020-04-01 10:52:02 GMT 56.100010 43.947544 35,000 90 458 64
2020-04-01 10:51:53 GMT 56.100101 43.918877 35,000 90 458 0
2020-04-01 10:51:48 GMT 56.100197 43.899994 35,000 90 459 64
2020-04-01 10:51:44 GMT 56.100266 43.883556 35,000 90 459 64
2020-04-01 10:51:41 GMT 56.100288 43.865917 35,000 90 459 -64
2020-04-01 10:51:35 GMT 56.100357 43.847267 35,000 90 460 128
2020-04-01 10:51:26 GMT 56.100494 43.812145 35,000 90 460 -128
2020-04-01 10:51:23 GMT 56.100494 43.802490 35,000 90 460 128
2020-04-01 10:51:17 GMT 56.100567 43.776913 35,000 90 460 -64
2020-04-01 10:51:14 GMT 56.100586 43.770615 35,000 90 460 0
2020-04-01 10:51:07 GMT 56.100632 43.742065 35,000 90 460 -128
2020-04-01 10:51:03 GMT 56.100658 43.729794 35,025 90 460 0
2020-04-01 10:50:57 GMT 56.100723 43.703861 35,000 90 459 0
2020-04-01 10:50:54 GMT 56.100769 43.692543 35,000 90 459 64
2020-04-01 10:50:50 GMT 56.100800 43.680267 35,000 90 458 64
2020-04-01 10:50:46 GMT 56.100800 43.660271 35,000 90 458 64
2020-04-01 10:50:42 GMT 56.100861 43.642857 35,000 90 459 128
2020-04-01 10:50:33 GMT 56.100891 43.615807 35,000 90 459 -128
2020-04-01 10:50:30 GMT 56.100906 43.602406 35,000 90 459 0
2020-04-01 10:50:23 GMT 56.100952 43.577271 35,000 90 459 0
2020-04-01 10:50:19 GMT 56.100941 43.563194 35,000 90 459 0
2020-04-01 10:50:12 GMT 56.100998 43.537903 35,000 90 459 -64
2020-04-01 10:50:03 GMT 56.100986 43.498821 35,025 90 458 0
2020-04-01 10:49:52 GMT 56.100998 43.461166 35,000 90 458 -64
2020-04-01 10:49:42 GMT 56.100986 43.420975 35,000 90 458 64
2020-04-01 10:49:32 GMT 56.100986 43.383553 35,000 89 459 64
2020-04-01 10:49:22 GMT 56.100941 43.345268 35,000 89 460 0
2020-04-01 10:49:12 GMT 56.100906 43.303196 35,000 89 461 128
2020-04-01 10:49:01 GMT 56.100845 43.262615 35,000 89 462 0
2020-04-01 10:48:51 GMT 56.100769 43.224625 35,000 89 463 0
2020-04-01 10:48:40 GMT 56.100723 43.186008 35,000 89 463 -64
2020-04-01 10:48:29 GMT 56.100613 43.140564 35,025 89 463 64
2020-04-01 10:48:19 GMT 56.100521 43.106834 35,000 89 464 -64
2020-04-01 10:48:08 GMT 56.100403 43.062744 35,000 89 464 0
2020-04-01 10:47:58 GMT 56.100266 43.019466 35,000 89 465 -64
2020-04-01 10:47:49 GMT 56.100128 42.992332 35,000 89 466 128
2020-04-01 10:47:46 GMT 56.100101 42.980659 35,000 89 466 -128
2020-04-01 10:47:39 GMT 56.099991 42.953880 35,000 89 465 -192
2020-04-01 10:47:33 GMT 56.099869 42.927361 35,000 89 464 -64
2020-04-01 10:47:29 GMT 56.099808 42.915844 35,025 89 464 64
2020-04-01 10:47:25 GMT 56.099716 42.892872 35,000 89 463 -128
2020-04-01 10:47:19 GMT 56.099670 42.876476 35,025 89 463 -64
2020-04-01 10:47:14 GMT 56.099579 42.856503 35,025 89 462 64
2020-04-01 10:47:08 GMT 56.099487 42.836441 35,025 89 461 -64
2020-04-01 10:47:05 GMT 56.099358 42.817581 35,025 89 461 64
2020-04-01 10:46:58 GMT 56.099258 42.797409 35,000 89 460 -128
2020-04-01 10:46:53 GMT 56.099171 42.776127 35,025 89 461 128
2020-04-01 10:46:48 GMT 56.099075 42.760368 35,000 89 461 -64
2020-04-01 10:46:43 GMT 56.098938 42.733727 35,000 89 462 64
2020-04-01 10:46:38 GMT 56.098846 42.720669 35,000 89 462 -64
2020-04-01 10:46:31 GMT 56.098663 42.687962 35,000 89 463 128
2020-04-01 10:46:28 GMT 56.098614 42.682316 35,000 89 464 -64
2020-04-01 10:46:18 GMT 56.098389 42.642769 35,025 89 464 128
2020-04-01 10:46:08 GMT 56.098114 42.604233 35,000 89 465 0
2020-04-01 10:45:58 GMT 56.097820 42.563953 35,000 89 465 0
2020-04-01 10:45:47 GMT 56.097542 42.526276 35,000 89 464 0
2020-04-01 10:45:37 GMT 56.097263 42.486622 35,000 89 464 -64
2020-04-01 10:45:26 GMT 56.096924 42.446095 35,000 89 463 -64
2020-04-01 10:45:17 GMT 56.096558 42.404312 35,000 89 461 -128
2020-04-01 10:45:07 GMT 56.096237 42.369774 35,000 89 461 -128
2020-04-01 10:44:54 GMT 56.095779 42.319836 35,000 89 460 0
2020-04-01 10:44:44 GMT 56.095413 42.281384 35,000 89 460 64
2020-04-01 10:44:36 GMT 56.095165 42.254360 35,000 89 460 -64
2020-04-01 10:44:33 GMT 56.095028 42.243633 35,000 89 460 0
2020-04-01 10:44:24 GMT 56.094654 42.205269 35,025 89 460 64
2020-04-01 10:44:15 GMT 56.094360 42.175014 35,000 88 459 -64
2020-04-01 10:44:11 GMT 56.094177 42.156540 35,000 88 459 0
2020-04-01 10:44:05 GMT 56.093948 42.136646 35,000 88 460 192
2020-04-01 10:44:01 GMT 56.093765 42.119335 35,000 88 460 0
2020-04-01 10:43:55 GMT 56.093536 42.099609 35,000 88 460 -192
2020-04-01 10:43:50 GMT 56.093304 42.075317 35,025 88 460 256
2020-04-01 10:43:45 GMT 56.093121 42.059696 35,000 88 460 -128
2020-04-01 10:43:39 GMT 56.092850 42.036186 35,000 88 459 0
2020-04-01 10:43:35 GMT 56.092667 42.021790 35,000 88 459 -192
2020-04-01 10:43:25 GMT 56.092236 41.983395 35,000 88 458 -384
2020-04-01 10:43:14 GMT 56.091751 41.943886 35,025 88 457 -64
2020-04-01 10:43:02 GMT 56.091209 41.899452 35,025 88 457 128
2020-04-01 10:42:53 GMT 56.090698 41.856449 35,025 88 458 64
2020-04-01 10:42:43 GMT 56.090324 41.828644 35,000 88 459 0
2020-04-01 10:42:38 GMT 56.090000 41.803493 35,000 88 459 -192
2020-04-01 10:42:34 GMT 56.089813 41.790276 35,025 88 460 128
2020-04-01 10:42:27 GMT 56.089394 41.761181 35,000 88 460 0
2020-04-01 10:42:23 GMT 56.089279 41.751793 35,025 88 460 -192
2020-04-01 10:42:13 GMT 56.088730 41.711926 35,000 88 460 0
2020-04-01 10:42:03 GMT 56.088181 41.673973 35,000 88 460 64
2020-04-01 10:41:52 GMT 56.087585 41.635021 35,000 88 460 0
2020-04-01 10:41:43 GMT 56.087021 41.596725 35,025 88 460 128
2020-04-01 10:41:32 GMT 56.086460 41.557331 35,000 88 459 128
2020-04-01 10:41:22 GMT 56.085846 41.517918 35,000 88 459 -64
2020-04-01 10:41:11 GMT 56.085205 41.479740 35,000 88 459 -64
2020-04-01 10:41:01 GMT 56.084507 41.437168 35,025 88 460 0
2020-04-01 10:40:51 GMT 56.083763 41.392879 35,025 88 461 128
2020-04-01 10:40:41 GMT 56.083298 41.363441 35,000 88 462 128
2020-04-01 10:40:29 GMT 56.082317 41.307652 35,000 88 466 0
2020-04-01 10:40:21 GMT 56.081947 41.286194 35,000 88 466 0
2020-04-01 10:40:17 GMT 56.081635 41.269394 35,000 88 465 -128
2020-04-01 10:40:10 GMT 56.081249 41.245937 35,025 88 465 -64
2020-04-01 10:40:07 GMT 56.080902 41.227112 35,025 88 465 -64
2020-04-01 10:40:00 GMT 56.080536 41.206387 35,025 88 465 192
2020-04-01 10:39:55 GMT 56.080132 41.183281 35,025 88 464 192
2020-04-01 10:39:50 GMT 56.079853 41.168777 35,000 88 465 64
2020-04-01 10:39:45 GMT 56.079388 41.143627 35,000 88 465 -192
2020-04-01 10:39:39 GMT 56.079025 41.125572 35,000 88 466 64
2020-04-01 10:39:33 GMT 56.078457 41.095650 35,025 88 466 -128
2020-04-01 10:39:28 GMT 56.078247 41.083290 35,025 88 466 -64
2020-04-01 10:39:22 GMT 56.077663 41.055565 35,025 88 467 128
2020-04-01 10:39:18 GMT 56.077477 41.044750 35,000 88 467 128
2020-04-01 10:39:08 GMT 56.076691 41.005638 35,000 87 469 192
2020-04-01 10:39:01 GMT 56.076096 40.974426 34,975 87 470 -256
2020-04-01 10:38:58 GMT 56.075867 40.963524 35,000 87 470 -192
2020-04-01 10:38:50 GMT 56.075245 40.932056 35,000 87 469 -256
2020-04-01 10:38:47 GMT 56.075058 40.923985 35,025 87 468 64
2020-04-01 10:38:39 GMT 56.074402 40.891197 35,025 87 466 64
2020-04-01 10:38:29 GMT 56.073578 40.852493 35,025 87 466 192
2020-04-01 10:38:26 GMT 56.073425 40.845711 35,000 87 465 64
2020-04-01 10:38:17 GMT 56.072617 40.806553 35,000 87 467 320
2020-04-01 10:38:13 GMT 56.072266 40.790260 34,975 87 467 -320
2020-04-01 10:38:08 GMT 56.071938 40.775330 35,025 87 467 -128
2020-04-01 10:38:03 GMT 56.071518 40.756283 35,025 87 467 320
2020-04-01 10:37:58 GMT 56.071053 40.736446 35,000 87 467 192
2020-04-01 10:37:54 GMT 56.070740 40.721825 35,000 87 467 192
2020-04-01 10:37:47 GMT 56.070145 40.696190 35,025 87 468 640
2020-04-01 10:37:44 GMT 56.069798 40.679543 35,000 87 469 0
2020-04-01 10:37:38 GMT 56.069275 40.656490 35,025 87 469 64
2020-04-01 10:37:34 GMT 56.069000 40.644753 35,025 87 469 64
2020-04-01 10:37:27 GMT 56.068401 40.618172 35,000 87 469 192
2020-04-01 10:37:22 GMT 56.067810 40.592236 35,000 87 469 -128
2020-04-01 10:37:15 GMT 56.067284 40.568302 35,000 87 470 -64
2020-04-01 10:37:10 GMT 56.066849 40.549374 35,000 87 470 192
2020-04-01 10:37:07 GMT 56.066574 40.538803 35,000 87 470 128
2020-04-01 10:37:03 GMT 56.066257 40.525906 35,000 87 470 -192
2020-04-01 10:36:56 GMT 56.065605 40.498352 35,025 87 470 320
2020-04-01 10:36:53 GMT 56.065338 40.487034 35,000 87 470 0
2020-04-01 10:36:47 GMT 56.064697 40.460232 35,000 87 470 0
2020-04-01 10:36:43 GMT 56.064304 40.444534 35,025 87 469 256
2020-04-01 10:36:36 GMT 56.063736 40.420700 35,000 87 469 0
2020-04-01 10:36:32 GMT 56.063091 40.395527 35,000 87 469 0
2020-04-01 10:36:26 GMT 56.062729 40.379997 35,000 87 468 128
2020-04-01 10:36:21 GMT 56.062180 40.358692 35,000 87 468 64
2020-04-01 10:36:16 GMT 56.061768 40.341381 35,000 87 468 320
2020-04-01 10:36:10 GMT 56.061218 40.319824 34,975 87 467 -192
2020-04-01 10:36:06 GMT 56.060760 40.302097 35,000 87 467 -192
2020-04-01 10:35:59 GMT 56.060165 40.279209 35,000 87 466 128
2020-04-01 10:35:55 GMT 56.059742 40.261974 35,000 87 464 64
2020-04-01 10:35:49 GMT 56.059181 40.240517 35,000 87 463 0
2020-04-01 10:35:45 GMT 56.058762 40.224037 35,000 87 462 -256
2020-04-01 10:35:39 GMT 56.058105 40.198727 35,050 87 461 64
2020-04-01 10:35:35 GMT 56.057693 40.184383 35,025 87 460 -192
2020-04-01 10:35:29 GMT 56.057098 40.161690 35,050 87 460 320
2020-04-01 10:35:25 GMT 56.056713 40.146358 35,025 87 460 64
2020-04-01 10:35:19 GMT 56.056110 40.124130 35,000 87 461 64
2020-04-01 10:35:15 GMT 56.055634 40.106754 35,000 87 463 192
2020-04-01 10:35:09 GMT 56.055038 40.084221 34,975 87 465 -256
2020-04-01 10:35:04 GMT 56.054626 40.069054 35,000 87 466 192
2020-04-01 10:34:58 GMT 56.053894 40.043919 35,000 87 467 0
2020-04-01 10:34:54 GMT 56.053482 40.029270 35,000 87 466 -384
2020-04-01 10:34:48 GMT 56.052853 40.005512 35,025 87 466 -192
2020-04-01 10:34:44 GMT 56.052383 39.989986 35,050 87 465 -64
2020-04-01 10:34:40 GMT 56.051872 39.971352 35,050 87 464 128
2020-04-01 10:34:33 GMT 56.051285 39.950283 35,025 87 463 256
2020-04-01 10:34:28 GMT 56.050598 39.927231 35,000 87 465 128
2020-04-01 10:34:24 GMT 56.050152 39.911873 35,000 87 465 256
2020-04-01 10:34:17 GMT 56.049404 39.886124 34,975 87 466 -256
2020-04-01 10:34:13 GMT 56.049042 39.872715 35,000 86 467 -192
2020-04-01 10:34:07 GMT 56.048290 39.847927 35,000 87 465 64
2020-04-01 10:34:02 GMT 56.047806 39.830765 34,975 87 462 128
2020-04-01 10:33:57 GMT 56.047173 39.809132 35,000 87 461 192
2020-04-01 10:33:50 GMT 56.046478 39.786655 34,950 87 460 1024
2020-04-01 10:33:47 GMT 56.046009 39.769733 34,875 87 458 1024
2020-04-01 10:33:42 GMT 56.045589 39.755917 34,800 86 457 640
2020-04-01 10:33:36 GMT 56.044891 39.732227 34,750 86 457 768
2020-04-01 10:33:33 GMT 56.044464 39.718323 34,675 86 456 768
2020-04-01 10:33:25 GMT 56.043633 39.691799 34,575 86 457 1152
2020-04-01 10:33:22 GMT 56.043308 39.680042 34,525 86 456 1088
2020-04-01 10:33:16 GMT 56.042519 39.655151 34,425 86 456 896
2020-04-01 10:33:12 GMT 56.042130 39.641087 34,350 86 460 960
2020-04-01 10:33:05 GMT 56.041306 39.615929 34,300 86 458 1088
2020-04-01 10:33:01 GMT 56.040283 39.582367 34,150 86 460 960
2020-04-01 10:32:57 GMT 56.040283 39.582367 34,150 86 460 896
2020-04-01 10:32:51 GMT 56.039612 39.561768 34,050 86 460 1344
2020-04-01 10:32:47 GMT 56.038979 39.541428 33,950 86 459 1280
2020-04-01 10:32:41 GMT 56.038376 39.523815 33,850 86 459 1408
2020-04-01 10:32:36 GMT 56.037724 39.502716 33,750 86 460 1664
2020-04-01 10:32:25 GMT 56.036407 39.461475 33,450 86 460 1472
2020-04-01 10:32:20 GMT 56.035858 39.445248 33,350 86 460 1344
2020-04-01 10:32:16 GMT 56.035217 39.425354 33,225 86 460 1344
2020-04-01 10:32:10 GMT 56.034668 39.407543 33,125 86 460 1728
2020-04-01 10:32:07 GMT 56.034210 39.394058 33,000 86 461 1792
2020-04-01 10:32:00 GMT 56.033344 39.368565 32,825 86 461 576
2020-04-01 10:31:54 GMT 56.032600 39.345131 32,750 86 459 576
2020-04-01 10:31:50 GMT 56.032059 39.329556 32,700 86 458 640
2020-04-01 10:31:44 GMT 56.031158 39.303246 32,625 86 455 960
2020-04-01 10:31:39 GMT 56.030731 39.290356 32,575 86 454 1280
2020-04-01 10:31:34 GMT 56.030041 39.268997 32,450 86 454 2240
2020-04-01 10:31:29 GMT 56.029404 39.251236 32,275 86 454 1408
2020-04-01 10:31:24 GMT 56.028763 39.232010 32,150 86 454 1088
2020-04-01 10:31:19 GMT 56.028168 39.214115 32,050 86 453 1728
2020-04-01 10:31:13 GMT 56.027386 39.191750 31,925 86 454 1792
2020-04-01 10:31:09 GMT 56.026886 39.176579 31,750 86 454 2112
2020-04-01 10:31:04 GMT 56.026062 39.153111 31,550 86 455 1728
2020-04-01 10:30:58 GMT 56.025524 39.137249 31,425 86 455 1664
2020-04-01 10:30:52 GMT 56.024689 39.113327 31,250 86 455 1408
2020-04-01 10:30:48 GMT 56.024185 39.098595 31,150 86 454 1216
2020-04-01 10:30:42 GMT 56.023384 39.076221 31,025 86 453 1152
2020-04-01 10:30:35 GMT 56.022217 39.042912 30,850 86 448 896
2020-04-01 10:30:32 GMT 56.022034 39.038975 30,825 86 450 704
2020-04-01 10:30:27 GMT 56.021484 39.022438 30,775 86 447 896
2020-04-01 10:30:23 GMT 56.020729 39.002495 30,675 86 445 1344
2020-04-01 10:30:18 GMT 56.020172 38.986099 30,575 86 444 1024
2020-04-01 10:30:12 GMT 56.019379 38.964813 30,525 86 443 1088
2020-04-01 10:30:08 GMT 56.018776 38.947475 30,400 86 440 768
2020-04-01 10:30:01 GMT 56.017982 38.926704 30,325 86 437 1280
2020-04-01 10:29:57 GMT 56.017426 38.910568 30,250 86 436 1472
2020-04-01 10:29:51 GMT 56.016586 38.887772 30,100 86 434 1600
2020-04-01 10:29:47 GMT 56.016121 38.874866 30,000 86 433 1472
2020-04-01 10:29:41 GMT 56.015377 38.855125 29,850 86 432 1664
2020-04-01 10:29:37 GMT 56.014771 38.838470 29,725 86 431 2048
2020-04-01 10:29:30 GMT 56.013935 38.816242 29,600 86 431 1920
2020-04-01 10:29:27 GMT 56.013336 38.801212 29,400 86 429 1600
2020-04-01 10:29:23 GMT 56.012863 38.787830 29,300 86 428 1536
2020-04-01 10:29:20 GMT 56.012444 38.777534 29,250 86 427 1728
2020-04-01 10:29:16 GMT 56.012024 38.766289 29,150 86 426 1728
2020-04-01 10:29:11 GMT 56.011139 38.742619 28,950 86 425 2112
2020-04-01 10:29:05 GMT 56.010582 38.728867 28,800 86 425 2240
2020-04-01 10:29:00 GMT 56.009838 38.709126 28,600 85 426 1920
2020-04-01 10:28:55 GMT 56.009216 38.692680 28,450 86 424 1920
2020-04-01 10:28:49 GMT 56.008347 38.671188 28,250 86 424 1856
2020-04-01 10:28:46 GMT 56.007881 38.657970 28,125 86 423 1984
2020-04-01 10:28:40 GMT 56.007046 38.636856 27,850 85 423 1856
2020-04-01 10:28:32 GMT 56.006161 38.614113 27,775 85 423 1856
2020-04-01 10:28:29 GMT 56.005600 38.600891 27,600 85 421 1728
2020-04-01 10:28:25 GMT 56.004204 38.565617 27,375 85 419 1664
2020-04-01 10:28:19 GMT 56.004204 38.565617 27,225 85 418 1728
2020-04-01 10:28:15 GMT 56.003677 38.552525 27,200 85 417 1856
2020-04-01 10:28:09 GMT 56.002716 38.528305 26,975 85 415 2112
2020-04-01 10:28:05 GMT 56.002201 38.515751 22,500 88 385 2304
2020-04-01 10:28:01 GMT 56.001755 38.504833 25,750 85 412 2176
2020-04-01 10:27:57 GMT 56.001225 38.491974 25,750 85 412 2176
2020-04-01 10:27:54 GMT 56.000805 38.481758 26,475 85 413 2496
2020-04-01 10:27:48 GMT 55.999832 38.458225 26,175 85 413 2368
2020-04-01 10:27:44 GMT 55.999363 38.446915 26,050 85 413 2368
2020-04-01 10:27:41 GMT 55.998825 38.434338 25,900 85 413 2176
2020-04-01 10:27:38 GMT 55.998413 38.424183 25,550 85 412 1984
2020-04-01 10:27:33 GMT 55.997871 38.412151 25,675 85 412 1920
2020-04-01 10:27:30 GMT 55.997360 38.399715 25,550 85 411 2048
2020-04-01 10:27:24 GMT 55.996445 38.378574 25,175 85 403 2240
2020-04-01 10:27:20 GMT 55.995918 38.366058 25,200 85 408 2240
2020-04-01 10:27:17 GMT 55.995346 38.352688 25,050 85 407 2304
2020-04-01 10:27:13 GMT 55.994892 38.343227 24,925 85 403 2240
2020-04-01 10:27:09 GMT 55.994385 38.331631 24,800 85 406 2240
2020-04-01 10:27:06 GMT 55.993870 38.319714 24,675 85 405 2112
2020-04-01 10:27:03 GMT 55.993450 38.309841 22,500 88 385 2304
2020-04-01 10:27:00 GMT 55.992893 38.297482 24,450 85 403 2240
2020-04-01 10:26:55 GMT 55.992287 38.283833 24,375 85 402 2304
2020-04-01 10:26:52 GMT 55.991913 38.275597 24,175 85 401 2432
2020-04-01 10:26:49 GMT 55.991364 38.263634 24,025 85 400 2560
2020-04-01 10:26:46 GMT 55.990749 38.249500 23,850 85 399 2432
2020-04-01 10:26:43 GMT 55.990334 38.240917 23,750 85 399 2432
2020-04-01 10:26:39 GMT 55.989899 38.230923 23,625 85 398 2432
2020-04-01 10:26:34 GMT 55.989029 38.211948 23,375 85 397 2496
2020-04-01 10:26:30 GMT 55.988468 38.199291 23,225 85 396 2496
2020-04-01 10:26:22 GMT 55.987400 38.174744 22,900 85 395 2304
2020-04-01 10:26:18 GMT 55.986923 38.163673 22,775 85 394 2240
2020-04-01 10:26:15 GMT 55.986328 38.150455 22,625 85 393 2432
2020-04-01 10:26:12 GMT 55.986004 38.142471 22,525 85 392 2496
2020-04-01 10:26:09 GMT 55.985596 38.131298 22,400 86 390 2624
2020-04-01 10:26:05 GMT 55.985092 38.118729 22,100 86 389 2368
2020-04-01 10:26:02 GMT 55.984745 38.109257 22,100 86 389 2496
2020-04-01 10:25:58 GMT 55.984406 38.099087 21,950 86 389 2240
2020-04-01 10:25:54 GMT 55.983906 38.083336 21,775 87 388 2112
2020-04-01 10:25:51 GMT 55.983765 38.076283 21,250 90 383 2624
2020-04-01 10:25:48 GMT 55.983536 38.066711 21,600 88 386 2304
2020-04-01 10:25:44 GMT 55.983307 38.052479 21,050 95 381 3392
2020-04-01 10:25:40 GMT 55.983215 38.039577 21,250 90 383 2624
2020-04-01 10:25:37 GMT 55.983307 38.032005 21,150 91 383 2688
2020-04-01 10:25:34 GMT 55.983719 38.018021 20,950 94 382 3136
2020-04-01 10:25:30 GMT 55.984047 38.011410 20,850 95 381 3328
2020-04-01 10:25:27 GMT 55.984608 38.001621 20,675 96 381 3456
2020-04-01 10:25:21 GMT 55.986652 37.977848 20,250 101 383 2240
2020-04-01 10:25:16 GMT 55.988609 37.961624 20,050 104 383 1856
2020-04-01 10:25:13 GMT 55.989494 37.955444 20,000 105 384 2048
2020-04-01 10:25:10 GMT 55.992332 37.938454 19,825 108 382 2112
2020-04-01 10:25:07 GMT 55.992332 37.938454 19,825 108 382 2112
2020-04-01 10:25:03 GMT 55.995358 37.922745 19,075 110 381 1344
2020-04-01 10:25:00 GMT 55.996353 37.917812 19,575 110 381 1472
2020-04-01 10:24:55 GMT 55.999641 37.901802 19,450 110 382 1088
2020-04-01 10:24:52 GMT 56.001270 37.893822 19,400 110 381 1088
2020-04-01 10:24:47 GMT 56.004913 37.875950 19,275 109 380 1024
2020-04-01 10:24:44 GMT 56.006207 37.869617 19,250 110 379 896
2020-04-01 10:24:41 GMT 56.007462 37.863438 19,075 110 378 896
2020-04-01 10:24:38 GMT 56.010315 37.849483 19,125 110 372 1408
2020-04-01 10:24:35 GMT 56.011841 37.842064 19,050 110 372 1280
2020-04-01 10:24:31 GMT 56.013657 37.833168 19,075 110 373 1216
2020-04-01 10:24:27 GMT 56.016541 37.819187 18,900 110 370 2496
2020-04-01 10:24:24 GMT 56.017960 37.812195 18,900 110 370 2496
2020-04-01 10:24:20 GMT 56.021484 37.794884 18,625 110 368 2880
2020-04-01 10:24:14 GMT 56.024094 37.782150 18,500 110 368 2816
2020-04-01 10:24:09 GMT 56.026703 37.769333 18,200 109 366 2624
2020-04-01 10:24:06 GMT 56.029064 37.757866 18,025 109 363 2624
2020-04-01 10:24:02 GMT 56.030785 37.749367 17,900 109 363 2624
2020-04-01 10:23:58 GMT 56.032742 37.739841 17,750 110 361 2688
2020-04-01 10:23:54 GMT 56.035767 37.724804 17,575 109 359 2688
2020-04-01 10:23:49 GMT 56.038422 37.711861 17,300 109 357 2880
2020-04-01 10:23:46 GMT 56.040344 37.702332 17,125 110 356 3008
2020-04-01 10:23:43 GMT 56.041588 37.696323 17,000 110 355 3136
2020-04-01 10:23:36 GMT 56.045776 37.675724 16,625 110 353 3200
2020-04-01 10:23:32 GMT 56.047592 37.666969 16,525 110 353 3200
2020-04-01 10:23:28 GMT 56.049919 37.655556 16,250 110 351 2880
2020-04-01 10:23:23 GMT 56.053070 37.640160 15,975 110 348 3008
2020-04-01 10:23:18 GMT 56.055817 37.626675 15,725 110 347 3200
2020-04-01 10:23:15 GMT 56.057041 37.620876 15,650 110 346 3264
2020-04-01 10:23:12 GMT 56.058437 37.614014 15,550 110 346 3392
2020-04-01 10:23:09 GMT 56.060532 37.603626 15,275 110 345 3584
2020-04-01 10:23:06 GMT 56.062454 37.594383 15,025 110 345 3712
2020-04-01 10:23:03 GMT 56.064209 37.585945 14,550 110 345 3520
2020-04-01 10:22:57 GMT 56.066895 37.572826 14,600 110 345 3520
2020-04-01 10:22:54 GMT 56.069046 37.562588 14,325 110 344 3136
2020-04-01 10:22:49 GMT 56.071930 37.548691 14,050 110 342 2560
2020-04-01 10:22:45 GMT 56.075291 37.532475 13,700 110 339 2112
2020-04-01 10:22:42 GMT 56.075291 37.532475 13,775 110 340 2112
2020-04-01 10:22:38 GMT 56.077515 37.521889 12,725 110 330 4224
2020-04-01 10:22:34 GMT 56.079525 37.512386 13,475 110 334 2816
2020-04-01 10:22:31 GMT 56.081852 37.501488 13,350 110 331 3648
2020-04-01 10:22:28 GMT 56.082962 37.496086 13,150 110 330 4224
2020-04-01 10:22:24 GMT 56.085716 37.483120 12,675 110 330 4672
2020-04-01 10:22:21 GMT 56.086880 37.477543 12,650 110 331 4480
2020-04-01 10:22:17 GMT 56.088913 37.468124 12,350 110 333 3904
2020-04-01 10:22:14 GMT 56.090515 37.460548 11,950 110 334 3392
2020-04-01 10:22:11 GMT 56.092346 37.451809 11,950 110 334 3456
2020-04-01 10:22:06 GMT 56.094864 37.439823 11,750 110 333 3328
2020-04-01 10:22:02 GMT 56.096786 37.430920 11,225 110 331 3328
2020-04-01 10:21:57 GMT 56.099762 37.416603 11,200 110 330 3072
2020-04-01 10:21:54 GMT 56.101639 37.407532 10,800 109 328 2496
2020-04-01 10:21:50 GMT 56.103592 37.397804 10,825 73 297 3200
2020-04-01 10:21:45 GMT 56.106339 37.383728 10,650 108 323 1536
2020-04-01 10:21:42 GMT 56.107544 37.377235 10,450 107 315 2240
2020-04-01 10:21:36 GMT 56.109879 37.363834 10,375 106 310 3136
2020-04-01 10:21:33 GMT 56.111927 37.351028 10,150 104 307 3520
2020-04-01 10:21:27 GMT 56.113586 37.338451 9,850 100 306 3264
2020-04-01 10:21:23 GMT 56.114391 37.329742 9,650 69 296 3136
2020-04-01 10:21:19 GMT 56.114639 37.322636 9,500 90 304 3456
2020-04-01 10:21:16 GMT 56.114548 37.313732 9,300 85 302 3456
2020-04-01 10:21:12 GMT 56.113861 37.303661 9,050 69 296 3136
2020-04-01 10:21:09 GMT 56.113083 37.297668 8,900 73 297 3200
2020-04-01 10:21:05 GMT 56.110703 37.285519 8,625 64 292 3200
2020-04-01 10:21:02 GMT 56.108643 37.278194 8,475 58 288 3200
2020-04-01 10:20:59 GMT 56.107040 37.273365 7,425 53 285 3328
2020-04-01 10:20:56 GMT 56.105083 37.268372 8,200 50 283 3392
2020-04-01 10:20:53 GMT 56.102848 37.263477 8,050 47 281 3456
2020-04-01 10:20:48 GMT 56.096050 37.251980 7,625 37 274 3456
2020-04-01 10:20:44 GMT 56.093353 37.248482 7,475 32 272 3392
2020-04-01 10:20:37 GMT 56.087036 37.242069 6,575 19 262 2688
2020-04-01 10:20:33 GMT 56.081482 37.238243 6,925 17 261 2688
2020-04-01 10:20:22 GMT 56.069611 37.234211 6,525 3 248 1728
2020-04-01 10:20:17 GMT 56.063004 37.234497 6,325 353 242 1792
2020-04-01 10:20:13 GMT 56.058975 37.235580 6,200 349 238 1664
2020-04-01 10:20:10 GMT 56.055588 37.236996 6,125 340 233 1600
2020-04-01 10:20:05 GMT 56.049545 37.240993 5,975 337 234 1792
2020-04-01 10:20:00 GMT 56.045498 37.244251 5,850 335 235 1856
2020-04-01 10:19:52 GMT 56.038193 37.250393 5,650 335 235 1920
2020-04-01 10:19:45 GMT 56.030045 37.257217 5,375 335 221 448
2020-04-01 10:19:42 GMT 56.028690 37.258327 5,375 335 217 576
2020-04-01 10:19:31 GMT 56.019054 37.266312 5,175 336 195 1728
2020-04-01 10:19:24 GMT 56.012585 37.271721 5,000 335 184 1024
2020-04-01 10:19:21 GMT 56.011414 37.272617 4,975 335 183 896
2020-04-01 10:19:11 GMT 56.004250 37.278584 4,850 336 161 1216
2020-04-01 10:19:01 GMT 55.997639 37.283993 4,525 335 149 2560
2020-04-01 10:18:50 GMT 55.990952 37.290176 3,900 323 145 2496
2020-04-01 10:18:43 GMT 55.986561 37.295921 3,525 312 140 2432
2020-04-01 10:18:38 GMT 55.984497 37.300163 3,525 312 140 2432
2020-04-01 10:18:30 GMT 55.982300 37.307072 3,150 293 133 2688
2020-04-01 10:18:21 GMT 55.980927 37.316231 2,750 277 129 2496
2020-04-01 10:18:18 GMT 55.980789 37.321140 2,600 268 127 2304
2020-04-01 10:18:11 GMT 55.981209 37.328281 2,350 258 121 2624
2020-04-01 10:18:08 GMT 55.981625 37.332230 2,175 258 121 2624
We lost coverage of the aircraft here for a total of 10 minutes
2020-04-01 10:07:51 GMT 55.986122 37.375175 0 64 5
2020-04-01 10:07:40 GMT 55.986031 37.374554 0 345 11
2020-04-01 10:06:17 GMT 55.984829 37.366501 0 345 14
2020-04-01 10:06:05 GMT 55.984642 37.365295 0 345 15
2020-04-01 10:05:30 GMT 55.983990 37.360939 0 345 11
2020-04-01 10:05:17 GMT 55.983810 37.360027 0 345 9
2020-04-01 10:05:10 GMT 55.983547 37.359882 0 345 9
2020-04-01 10:04:46 GMT 55.982597 37.360298 0 345 11
2020-04-01 10:04:39 GMT 55.982231 37.360470 0 345 16
2020-04-01 10:04:30 GMT 55.981487 37.360821 0 345 23
2020-04-01 10:04:20 GMT 55.980324 37.361370 0 345 25
2020-04-01 10:04:02 GMT 55.978432 37.362274 0 345 27
2020-04-01 10:03:59 GMT 55.978031 37.362465 0 345 25
2020-04-01 10:03:49 GMT 55.977016 37.362934 0 345 21
2020-04-01 10:03:34 GMT 55.975811 37.363567 0 295 16
2020-04-01 10:03:22 GMT 55.975098 37.364307 0 295 16
2020-04-01 10:03:18 GMT 55.974884 37.364647 0 295 15
2020-04-01 10:03:08 GMT 55.974411 37.365662 0 295 17
2020-04-01 10:02:59 GMT 55.974026 37.366917 0 295 17
2020-04-01 10:02:47 GMT 55.973526 37.368687 0 295 29
2020-04-01 10:02:37 GMT 55.972935 37.370831 0 295 28
2020-04-01 10:02:20 GMT 55.971989 37.374157 0 298 25
2020-04-01 10:02:17 GMT 55.971794 37.374886 0 295 22
2020-04-01 10:02:01 GMT 55.971188 37.377029 0 255 16
2020-04-01 10:01:55 GMT 55.971012 37.377655 0 255 15
2020-04-01 10:01:43 GMT 55.970753 37.378902 0 255 13
2020-04-01 10:01:30 GMT 55.970825 37.380573 0 255 19
2020-04-01 10:01:25 GMT 55.970856 37.381229 0 255 19
2020-04-01 10:01:15 GMT 55.970943 37.382656 0 255 17
2020-04-01 10:01:02 GMT 55.971153 37.384167 0 255 13
2020-04-01 10:00:54 GMT 55.971268 37.385017 0 255 10
2020-04-01 10:00:44 GMT 55.971382 37.385746 0 255 13
2020-04-01 10:00:33 GMT 55.971577 37.387077 0 255 17
2020-04-01 10:00:23 GMT 55.971767 37.388321 0 255 17
2020-04-01 10:00:13 GMT 55.971989 37.389778 0 255 20
2020-04-01 09:59:58 GMT 55.972351 37.392269 0 255 22
2020-04-01 09:59:54 GMT 55.972458 37.392986 0 255 25
2020-04-01 09:59:40 GMT 55.972828 37.395466 0 255 22
2020-04-01 09:59:32 GMT 55.973064 37.397003 0 255 20
2020-04-01 09:59:23 GMT 55.973282 37.398403 0 253 24
2020-04-01 09:59:12 GMT 55.973579 37.400394 0 255 23
2020-04-01 09:59:02 GMT 55.973843 37.402122 0 255 22
2020-04-01 09:58:51 GMT 55.974144 37.404156 0 154 20
2020-04-01 09:58:40 GMT 55.974358 37.405575 0 154 18
2020-04-01 09:58:30 GMT 55.974564 37.407013 0 154 17
2020-04-01 09:58:20 GMT 55.974747 37.408199 0 154 15
2020-04-01 09:58:09 GMT 55.974941 37.409531 0 154 13
2020-04-01 09:58:01 GMT 55.975033 37.410133 0 154 11
2020-04-01 09:57:51 GMT 55.975155 37.410957 0 154 9
2020-04-01 09:57:41 GMT 55.975353 37.411526 0 154 8

Making use of Plane Finder data

You are free to use the raw flight data, aircraft information and images provided in this report for your own purposes provided the data is correctly attributed to Plane Finder. We ask that you please credit Plane Finder and link to planefinder.net in close proximity to the content.

Optionally one of the following logos (no smaller then 150x24px) can be used and must link to planefinder.net

Embedding the Plane Finder map

You are welcome to embed the Plane Finder playback map on your website to offer visitors a more interactive experience. We suggest using the following HTML code:

<iframe src="//planefinder.net/data/report/SU1392-RA-89061-7700-squawk-2020-04-01/map" width="800" height="600" seamless="seamless"></iframe>

Where our data comes from

Plane Finder has a global network of data feeds and antenna radars that receive data broadcast directly from aircraft. The primary technologies used are ADS-B and MLAT. We also show feeds from the FAA and a FLARM glider feed.

Click here to find out more about the Plane Finder network.

How we collect our data